Time;durP1;ratioP1;P1;durP2;ratioP2;P2;SDS_P1;SDS_P2;PMS_P1;PMS_P2;Temp;Humidity;BMP_temperature;BMP_pressure;BME280_temperature;BME280_humidity;BME280_pressure;Samples;Min_cycle;Max_cycle;Signal;HPM_P1;HPM_P2
2021/09/20 00:01:16;;;;;;;11.13;1.75;;;16.40;99.90;;;;;;5071083;28;20279;-80
2021/09/20 00:03:42;;;;;;;2.80;1.00;;;16.40;99.90;;;;;;5071003;28;20272;-79
2021/09/20 00:06:11;;;;;;;2.95;1.50;;;16.40;99.90;;;;;;5070342;28;20685;-79
2021/09/20 00:08:38;;;;;;;1.98;0.95;;;16.40;99.90;;;;;;5070985;28;20267;-79
2021/09/20 00:11:05;;;;;;;5.07;1.30;;;16.50;99.90;;;;;;5070625;28;20263;-79
2021/09/20 00:13:32;;;;;;;2.42;1.20;;;16.50;99.90;;;;;;5070872;28;20256;-79
2021/09/20 00:15:59;;;;;;;5.47;1.92;;;16.60;99.90;;;;;;5070447;28;20206;-79
2021/09/20 00:18:26;;;;;;;2.83;1.50;;;16.60;99.90;;;;;;5070755;28;20624;-81
2021/09/20 00:20:53;;;;;;;4.22;1.65;;;16.60;99.90;;;;;;5070665;28;20214;-79
2021/09/20 00:23:21;;;;;;;8.90;2.05;;;16.60;99.90;;;;;;5070465;28;20206;-79
2021/09/20 00:25:49;;;;;;;4.65;1.63;;;16.50;99.90;;;;;;5070998;28;20252;-76
2021/09/20 00:28:16;;;;;;;2.83;1.27;;;16.50;99.90;;;;;;5070565;28;20206;-77
2021/09/20 00:30:43;;;;;;;2.58;1.20;;;16.50;99.90;;;;;;5070741;28;20641;-77
2021/09/20 00:33:10;;;;;;;2.20;1.50;;;16.60;99.90;;;;;;5070546;28;20266;-77
2021/09/20 00:35:37;;;;;;;6.30;1.85;;;16.60;99.90;;;;;;5070525;28;20285;-76
2021/09/20 00:38:05;;;;;;;4.03;1.70;;;16.50;99.90;;;;;;5070120;28;20766;-77
2021/09/20 00:40:33;;;;;;;6.68;1.48;;;16.40;99.90;;;;;;5070330;28;20206;-77
2021/09/20 00:43:00;;;;;;;3.70;1.73;;;16.40;99.90;;;;;;5070461;28;20260;-77
2021/09/20 00:45:27;;;;;;;4.72;1.25;;;16.30;99.90;;;;;;5070588;28;20268;-76
2021/09/20 00:47:54;;;;;;;2.53;1.17;;;16.30;99.90;;;;;;5069988;28;20210;-79
2021/09/20 00:50:21;;;;;;;2.53;1.25;;;16.30;99.90;;;;;;5069977;28;20210;-76
2021/09/20 00:52:48;;;;;;;3.08;1.60;;;16.30;99.90;;;;;;5070517;28;20263;-79
2021/09/20 00:55:16;;;;;;;3.65;1.80;;;16.30;99.90;;;;;;5070069;28;20210;-81
2021/09/20 00:57:46;;;;;;;3.63;2.22;;;16.30;99.90;;;;;;5070191;28;20717;-75
2021/09/20 01:00:14;;;;;;;5.53;1.73;;;16.40;99.90;;;;;;5070214;28;20259;-79
2021/09/20 01:02:41;;;;;;;4.35;1.73;;;16.30;99.90;;;;;;5070190;28;20210;-81
2021/09/20 01:05:10;;;;;;;8.95;1.70;;;16.40;99.90;;;;;;5069734;28;20567;-76
2021/09/20 01:07:37;;;;;;;4.97;1.27;;;16.30;99.90;;;;;;5070397;28;20697;-81
2021/09/20 01:10:05;;;;;;;3.13;1.92;;;16.40;99.90;;;;;;5069718;28;20251;-81
2021/09/20 01:12:32;;;;;;;2.60;1.50;;;16.30;99.90;;;;;;5070476;28;20279;-81
2021/09/20 01:15:01;;;;;;;7.93;3.45;;;16.30;99.90;;;;;;5069832;28;20255;-80
2021/09/20 01:17:28;;;;;;;2.15;1.60;;;16.30;99.90;;;;;;5070044;28;20634;-76
2021/09/20 01:19:55;;;;;;;4.10;1.30;;;16.40;99.90;;;;;;5069766;28;20279;-80
2021/09/20 01:22:23;;;;;;;3.97;1.60;;;16.40;99.90;;;;;;5070002;28;20206;-77
2021/09/20 01:24:53;;;;;;;3.72;1.77;;;16.40;99.90;;;;;;5070331;28;20206;-78
2021/09/20 01:27:20;;;;;;;3.30;1.73;;;16.40;99.90;;;;;;5057252;28;20202;-77
2021/09/20 01:29:47;;;;;;;4.60;1.67;;;16.30;99.90;;;;;;5070467;28;20270;-75
2021/09/20 01:32:15;;;;;;;4.05;1.65;;;16.40;99.90;;;;;;5069729;28;20210;-77
2021/09/20 01:34:43;;;;;;;1.65;1.55;;;16.40;99.90;;;;;;5070298;28;20209;-76
2021/09/20 01:37:10;;;;;;;3.78;1.50;;;16.40;99.90;;;;;;5069281;28;20226;-74
2021/09/20 01:39:38;;;;;;;5.53;1.63;;;16.40;99.90;;;;;;5069960;28;20673;-79
2021/09/20 01:42:07;;;;;;;7.32;2.20;;;16.50;99.90;;;;;;5069625;28;20331;-75
2021/09/20 01:44:34;;;;;;;4.97;1.83;;;16.50;99.90;;;;;;5069920;28;20673;-79
2021/09/20 01:47:01;;;;;;;3.22;2.17;;;16.50;99.90;;;;;;5069619;28;20210;-79
2021/09/20 01:49:29;;;;;;;2.85;1.25;;;16.50;99.90;;;;;;5069859;28;20735;-78
2021/09/20 01:51:56;;;;;;;2.58;1.80;;;16.50;99.90;;;;;;5069623;28;20202;-79
2021/09/20 01:54:23;;;;;;;6.35;2.13;;;16.50;99.90;;;;;;5069740;28;20214;-76
2021/09/20 01:56:51;;;;;;;4.00;2.15;;;16.50;99.90;;;;;;5069676;28;20283;-80
2021/09/20 01:59:19;;;;;;;3.65;1.27;;;16.50;99.90;;;;;;5069996;28;20264;-75
2021/09/20 02:01:46;;;;;;;3.03;1.80;;;16.50;99.90;;;;;;5072746;28;20207;-80
2021/09/20 02:04:13;;;;;;;4.85;1.58;;;16.50;99.90;;;;;;5073035;28;20206;-78
2021/09/20 02:06:40;;;;;;;2.55;1.63;;;16.40;99.90;;;;;;5072977;28;20260;-80
2021/09/20 02:09:10;;;;;;;7.45;2.22;;;16.40;99.90;;;;;;5072971;28;20280;-77
2021/09/20 02:11:38;;;;;;;2.90;1.33;;;16.40;99.90;;;;;;5073149;28;20199;-79
2021/09/20 02:14:05;;;;;;;9.00;2.08;;;16.40;99.90;;;;;;5073220;28;20255;-77
2021/09/20 02:16:34;;;;;;;2.22;1.15;;;16.30;99.90;;;;;;5072795;28;20202;-74
2021/09/20 02:19:01;;;;;;;3.58;1.33;;;16.30;99.90;;;;;;5072970;28;20264;-79
2021/09/20 02:21:28;;;;;;;3.33;1.67;;;16.40;99.90;;;;;;5072786;28;20701;-78
2021/09/20 02:23:55;;;;;;;8.98;2.08;;;16.40;99.90;;;;;;5072626;28;20750;-77
2021/09/20 02:26:22;;;;;;;4.13;2.17;;;16.30;99.90;;;;;;5073197;28;20210;-78
2021/09/20 02:28:49;;;;;;;4.60;1.95;;;16.30;99.90;;;;;;5072937;28;20202;-74
2021/09/20 02:31:16;;;;;;;4.28;2.05;;;16.30;99.90;;;;;;5073201;28;20217;-81
2021/09/20 02:33:44;;;;;;;4.78;1.33;;;16.20;99.90;;;;;;5073028;28;20198;-73
2021/09/20 02:36:12;;;;;;;5.65;1.10;;;16.20;99.90;;;;;;5072237;28;20214;-78
2021/09/20 02:38:39;;;;;;;3.78;1.92;;;16.20;99.90;;;;;;5072321;28;20462;-73
2021/09/20 02:41:07;;;;;;;2.33;1.40;;;16.20;99.90;;;;;;5072672;28;20580;-81
2021/09/20 02:43:34;;;;;;;1.85;1.30;;;16.20;99.90;;;;;;5072758;28;20214;-79
2021/09/20 02:46:02;;;;;;;4.15;1.90;;;16.20;99.90;;;;;;5072307;28;20735;-81
2021/09/20 02:48:29;;;;;;;3.38;1.83;;;16.10;99.90;;;;;;5072486;28;20263;-80
2021/09/20 02:50:57;;;;;;;4.22;1.77;;;16.10;99.90;;;;;;5071729;28;20267;-78
2021/09/20 02:53:24;;;;;;;3.92;1.58;;;16.10;99.90;;;;;;5072407;28;20676;-80
2021/09/20 02:55:51;;;;;;;2.17;1.30;;;16.00;99.90;;;;;;5072189;28;20203;-82
2021/09/20 02:58:18;;;;;;;2.67;1.25;;;16.00;99.90;;;;;;5072654;28;20234;-71
2021/09/20 03:00:45;;;;;;;5.40;1.42;;;16.00;99.90;;;;;;5072999;28;20202;-73
2021/09/20 03:03:12;;;;;;;4.20;1.85;;;16.00;99.90;;;;;;5071965;28;20206;-82
2021/09/20 03:05:39;;;;;;;3.85;1.55;;;15.90;99.90;;;;;;5072169;28;20263;-80
2021/09/20 03:08:08;;;;;;;3.47;1.38;;;15.80;99.90;;;;;;5071870;28;20206;-82
2021/09/20 03:10:36;;;;;;;3.45;1.38;;;15.80;99.90;;;;;;5072602;28;20210;-81
2021/09/20 03:13:03;;;;;;;3.47;1.38;;;15.80;99.90;;;;;;5071735;28;20202;-77
2021/09/20 03:15:30;;;;;;;4.53;1.27;;;15.70;99.90;;;;;;5072072;28;20735;-78
2021/09/20 03:17:57;;;;;;;2.65;1.45;;;15.70;99.90;;;;;;5071837;28;20639;-81
2021/09/20 03:20:24;;;;;;;5.18;1.63;;;15.70;99.90;;;;;;5071676;28;20248;-76
2021/09/20 03:22:52;;;;;;;2.28;1.48;;;15.70;99.90;;;;;;5071903;28;20206;-75
2021/09/20 03:25:21;;;;;;;4.35;2.13;;;15.70;99.90;;;;;;5071820;28;20203;-75
2021/09/20 03:27:48;;;;;;;2.58;1.60;;;15.70;99.90;;;;;;5072153;28;20213;-76
2021/09/20 03:30:17;;;;;;;3.38;1.25;;;15.80;99.90;;;;;;5071494;28;20210;-77
2021/09/20 03:32:44;;;;;;;2.90;1.48;;;15.80;99.90;;;;;;5071838;28;20251;-80
2021/09/20 03:35:14;;;;;;;1.55;1.45;;;15.90;99.90;;;;;;5070905;28;20211;-75
2021/09/20 03:37:41;;;;;;;2.08;0.93;;;15.80;99.90;;;;;;5071647;28;20234;-80
2021/09/20 03:40:10;;;;;;;3.38;1.42;;;15.80;99.90;;;;;;5071405;28;20214;-79
2021/09/20 03:42:38;;;;;;;1.90;1.30;;;15.80;99.90;;;;;;5071627;28;20279;-75
2021/09/20 03:45:06;;;;;;;4.07;1.80;;;15.90;99.90;;;;;;5071090;28;20666;-77
2021/09/20 03:47:33;;;;;;;2.00;0.95;;;15.90;99.90;;;;;;5071183;28;20267;-77
2021/09/20 03:50:00;;;;;;;3.15;1.65;;;15.80;99.90;;;;;;5071226;28;20206;-82
2021/09/20 03:52:27;;;;;;;2.85;1.73;;;15.80;99.90;;;;;;5071198;28;20206;-79
2021/09/20 03:54:54;;;;;;;4.57;1.60;;;15.80;99.90;;;;;;5070978;28;20636;-77
2021/09/20 03:57:21;;;;;;;2.63;1.60;;;15.80;99.90;;;;;;5071014;28;20226;-77
2021/09/20 03:59:49;;;;;;;3.08;1.77;;;15.70;99.90;;;;;;5071689;28;20802;-76
2021/09/20 04:02:16;;;;;;;4.15;1.17;;;15.70;99.90;;;;;;5070894;28;20726;-80
2021/09/20 04:04:43;;;;;;;3.05;1.40;;;15.60;99.90;;;;;;5071139;28;20209;-81
2021/09/20 04:07:12;;;;;;;2.78;1.65;;;15.60;99.90;;;;;;5070949;28;20271;-80
2021/09/20 04:09:41;;;;;;;3.10;1.48;;;15.60;99.90;;;;;;5071206;28;20218;-79
2021/09/20 04:12:09;;;;;;;6.00;1.30;;;15.60;99.90;;;;;;5070732;28;20202;-81
2021/09/20 04:14:37;;;;;;;2.03;1.38;;;15.60;99.90;;;;;;5071362;28;20598;-77
2021/09/20 04:17:06;;;;;;;1.30;1.20;;;15.60;99.90;;;;;;5070591;28;20327;-78
2021/09/20 04:19:33;;;;;;;3.88;1.92;;;15.60;99.90;;;;;;5071202;28;20293;-77
2021/09/20 04:22:01;;;;;;;4.07;1.40;;;15.50;99.90;;;;;;5070329;28;20672;-75
2021/09/20 04:24:28;;;;;;;2.70;1.58;;;15.50;99.90;;;;;;5070372;28;20255;-80
2021/09/20 04:26:55;;;;;;;2.35;1.08;;;15.40;99.90;;;;;;5070105;28;20279;-78
2021/09/20 04:29:22;;;;;;;5.93;1.38;;;15.40;99.90;;;;;;5071050;28;20209;-79
2021/09/20 04:31:49;;;;;;;1.33;1.13;;;15.40;99.90;;;;;;5070830;28;20202;-73
2021/09/20 04:34:17;;;;;;;1.42;1.05;;;15.50;99.90;;;;;;5070606;28;20255;-75
2021/09/20 04:36:44;;;;;;;2.35;1.45;;;15.50;99.90;;;;;;5071133;28;20612;-79
2021/09/20 04:39:11;;;;;;;2.25;1.38;;;15.60;99.90;;;;;;5070425;28;20672;-76
2021/09/20 04:41:39;;;;;;;1.90;1.20;;;15.60;99.90;;;;;;5070668;28;20205;-79
2021/09/20 04:44:06;;;;;;;1.95;1.33;;;15.60;99.90;;;;;;5070186;28;20206;-87
2021/09/20 04:46:33;;;;;;;2.58;1.17;;;15.60;99.90;;;;;;5070386;28;20252;-85
2021/09/20 04:49:00;;;;;;;3.20;1.73;;;15.60;99.90;;;;;;5070146;28;20256;-76
2021/09/20 04:51:28;;;;;;;2.47;1.42;;;15.50;99.90;;;;;;5070205;28;20260;-79
2021/09/20 04:53:55;;;;;;;2.72;1.55;;;15.50;99.90;;;;;;5069811;28;20218;-78
2021/09/20 04:56:23;;;;;;;2.92;1.48;;;15.40;99.90;;;;;;5070337;28;20244;-82
2021/09/20 04:58:50;;;;;;;4.60;1.13;;;15.40;99.90;;;;;;5069003;28;20284;-75
2021/09/20 05:01:17;;;;;;;3.58;1.80;;;15.40;99.90;;;;;;5066392;28;20652;-79
2021/09/20 05:03:44;;;;;;;2.03;1.33;;;15.30;99.90;;;;;;5070427;28;20213;-79
2021/09/20 05:06:11;;;;;;;2.42;1.30;;;15.20;99.90;;;;;;5069637;28;20739;-73
2021/09/20 05:08:39;;;;;;;1.75;1.20;;;15.10;99.90;;;;;;5070368;28;20283;-77
2021/09/20 05:11:06;;;;;;;3.63;1.40;;;15.10;99.90;;;;;;5069133;28;20674;-78
2021/09/20 05:13:33;;;;;;;3.83;1.55;;;15.10;99.90;;;;;;5068689;28;20252;-77
2021/09/20 05:16:01;;;;;;;2.28;1.50;;;15.20;99.90;;;;;;5075096;28;20218;-75
2021/09/20 05:18:28;;;;;;;1.55;0.95;;;15.20;99.90;;;;;;5054967;28;20229;-77
2021/09/20 05:20:55;;;;;;;2.20;1.20;;;15.20;99.90;;;;;;5064480;28;20673;-77
2021/09/20 05:23:22;;;;;;;1.55;1.13;;;15.20;99.90;;;;;;5055308;28;20268;-75
2021/09/20 05:25:50;;;;;;;5.07;1.23;;;15.20;99.90;;;;;;5059142;28;20218;-74
2021/09/20 05:28:18;;;;;;;1.65;1.08;;;15.20;99.90;;;;;;5061864;28;20211;-80
2021/09/20 05:30:45;;;;;;;6.57;1.38;;;15.20;99.90;;;;;;5070525;28;20217;-78
2021/09/20 05:33:13;;;;;;;2.63;1.27;;;15.20;99.90;;;;;;5069834;28;20621;-74
2021/09/20 05:35:40;;;;;;;3.67;1.35;;;15.30;99.90;;;;;;5070663;28;20216;-72
2021/09/20 05:38:07;;;;;;;3.22;1.17;;;15.30;99.90;;;;;;5073073;28;20242;-75
2021/09/20 05:40:34;;;;;;;2.83;0.90;;;15.30;99.90;;;;;;5073244;28;20202;-82
2021/09/20 05:43:03;;;;;;;1.90;0.98;;;15.40;99.90;;;;;;5073697;28;20214;-76
2021/09/20 05:45:30;;;;;;;2.42;1.13;;;15.40;99.90;;;;;;5073724;28;20214;-83
2021/09/20 05:48:00;;;;;;;1.20;1.10;;;15.40;99.90;;;;;;5073151;28;20214;-77
2021/09/20 05:50:27;;;;;;;1.10;0.85;;;15.60;99.90;;;;;;5074150;28;20723;-81
2021/09/20 05:52:54;;;;;;;2.05;0.70;;;15.70;99.90;;;;;;5073062;28;20620;-79
2021/09/20 05:55:23;;;;;;;2.47;0.80;;;15.70;99.90;;;;;;5073701;28;20301;-75
2021/09/20 05:57:50;;;;;;;2.97;0.77;;;15.80;99.90;;;;;;5073205;28;20237;-76
2021/09/20 06:00:19;;;;;;;0.98;0.85;;;15.90;99.90;;;;;;5073930;28;20579;-81
2021/09/20 06:02:46;;;;;;;1.33;0.85;;;15.90;99.90;;;;;;5073717;28;20255;-80
2021/09/20 06:05:14;;;;;;;1.88;1.13;;;16.00;99.90;;;;;;5073251;28;20203;-72
2021/09/20 06:07:41;;;;;;;4.22;1.33;;;16.00;99.90;;;;;;5073630;28;20206;-77
2021/09/20 06:10:09;;;;;;;1.50;1.40;;;15.90;99.90;;;;;;5073267;28;20275;-87
2021/09/20 06:12:37;;;;;;;1.73;1.25;;;15.70;99.90;;;;;;5073766;28;20259;-74
2021/09/20 06:15:05;;;;;;;1.80;0.98;;;15.60;99.90;;;;;;5072635;28;20198;-76
2021/09/20 06:17:33;;;;;;;6.32;1.48;;;15.60;99.90;;;;;;5082327;28;20677;-70
2021/09/20 06:20:00;;;;;;;1.65;1.10;;;15.60;99.90;;;;;;5072878;28;20230;-84
2021/09/20 06:22:27;;;;;;;1.27;1.17;;;15.60;99.90;;;;;;5067954;28;20249;-78
2021/09/20 06:24:56;;;;;;;2.00;1.00;;;15.60;99.90;;;;;;5066986;28;20202;-73
2021/09/20 06:27:23;;;;;;;2.20;1.55;;;15.70;99.90;;;;;;5066660;28;20261;-71
2021/09/20 06:29:50;;;;;;;2.13;1.25;;;15.70;99.90;;;;;;5063173;28;20257;-71
2021/09/20 06:32:17;;;;;;;2.60;1.33;;;15.70;99.90;;;;;;5068597;28;20209;-72
2021/09/20 06:34:46;;;;;;;4.28;1.50;;;15.70;99.90;;;;;;5072615;28;20225;-76
2021/09/20 06:37:13;;;;;;;3.88;1.20;;;15.80;99.90;;;;;;5072266;28;20263;-71
2021/09/20 06:39:40;;;;;;;3.35;1.10;;;15.90;99.90;;;;;;5071772;28;20331;-71
2021/09/20 06:42:07;;;;;;;2.03;1.17;;;15.90;99.90;;;;;;5071975;28;20624;-71
2021/09/20 06:44:34;;;;;;;2.78;0.80;;;15.90;99.90;;;;;;5070983;28;20267;-76
2021/09/20 06:47:01;;;;;;;2.15;1.10;;;16.00;99.90;;;;;;5071811;28;20206;-72
2021/09/20 06:49:28;;;;;;;1.75;1.00;;;16.10;99.90;;;;;;5072328;28;20678;-70
2021/09/20 06:51:57;;;;;;;3.55;1.40;;;16.30;99.90;;;;;;5072181;28;20206;-69
2021/09/20 06:54:24;;;;;;;1.55;1.13;;;16.60;99.90;;;;;;5072527;28;20255;-74
2021/09/20 06:56:51;;;;;;;1.10;1.00;;;16.80;99.90;;;;;;5067088;28;20589;-71
2021/09/20 06:59:18;;;;;;;1.42;1.02;;;16.90;99.90;;;;;;5071841;28;20603;-75
2021/09/20 07:01:46;;;;;;;1.02;0.90;;;16.80;99.90;;;;;;5062813;28;20738;-71
2021/09/20 07:04:12;;;;;;;1.08;0.98;;;16.60;99.90;;;;;;5071711;28;20267;-72
2021/09/20 07:06:39;;;;;;;1.35;0.93;;;16.60;99.90;;;;;;5067428;28;20214;-71
2021/09/20 07:09:08;;;;;;;2.45;1.30;;;16.60;99.90;;;;;;5071681;28;20206;-73
2021/09/20 07:11:35;;;;;;;2.22;1.55;;;16.50;99.90;;;;;;5069759;28;20678;-75
2021/09/20 07:14:02;;;;;;;4.00;0.90;;;16.40;99.90;;;;;;5060617;28;20218;-71
2021/09/20 07:16:29;;;;;;;2.33;1.10;;;16.40;99.90;;;;;;5060474;28;20202;-71
2021/09/20 07:18:56;;;;;;;2.92;0.73;;;16.40;99.90;;;;;;5064159;28;20279;-71
2021/09/20 07:21:24;;;;;;;2.10;0.88;;;16.40;99.90;;;;;;5065441;28;20284;-80
2021/09/20 07:23:52;;;;;;;4.03;1.08;;;16.40;99.90;;;;;;5072086;28;20206;-82
2021/09/20 07:26:20;;;;;;;4.75;1.90;;;16.40;99.90;;;;;;5071962;28;20210;-73
2021/09/20 07:28:48;;;;;;;2.80;0.95;;;16.50;99.90;;;;;;5069746;28;20669;-73
2021/09/20 07:31:16;;;;;;;2.97;1.73;;;16.70;99.90;;;;;;5061873;28;20207;-80
2021/09/20 07:33:43;;;;;;;1.88;0.90;;;16.80;99.90;;;;;;5070868;28;20268;-76
2021/09/20 07:36:11;;;;;;;1.92;0.88;;;16.60;99.90;;;;;;5071644;28;20228;-74
2021/09/20 07:38:38;;;;;;;3.30;0.82;;;16.50;99.90;;;;;;5071327;28;20636;-79
2021/09/20 07:41:07;;;;;;;1.33;0.93;;;16.60;99.90;;;;;;5071057;28;20252;-74
2021/09/20 07:43:35;;;;;;;7.32;1.80;;;16.30;99.90;;;;;;5071526;28;20260;-80
2021/09/20 07:46:03;;;;;;;3.15;1.08;;;16.20;99.90;;;;;;5070851;28;20766;-78
2021/09/20 07:48:30;;;;;;;3.95;1.35;;;16.10;99.90;;;;;;5070865;28;21014;-79
2021/09/20 07:50:57;;;;;;;3.47;1.38;;;16.00;99.90;;;;;;5070154;28;20632;-80
2021/09/20 07:53:24;;;;;;;5.35;1.65;;;15.80;99.90;;;;;;5071215;28;20276;-75
2021/09/20 07:55:51;;;;;;;1.77;0.80;;;15.80;99.90;;;;;;5070918;28;20248;-75
2021/09/20 07:58:18;;;;;;;2.47;1.60;;;15.80;99.90;;;;;;5070703;28;20267;-77
2021/09/20 08:00:46;;;;;;;3.65;1.48;;;15.70;99.90;;;;;;5063431;28;20210;-77
2021/09/20 08:03:13;;;;;;;1.48;0.70;;;15.80;99.90;;;;;;5064838;28;20214;-78
2021/09/20 08:05:41;;;;;;;1.63;0.70;;;15.70;99.90;;;;;;5065727;28;20210;-77
2021/09/20 08:08:10;;;;;;;2.63;1.40;;;15.60;99.90;;;;;;5070105;28;20611;-76
2021/09/20 08:10:37;;;;;;;1.77;0.80;;;15.40;99.90;;;;;;5065788;28;20268;-75
2021/09/20 08:13:06;;;;;;;3.42;0.73;;;15.40;99.90;;;;;;5069987;28;20202;-73
2021/09/20 08:15:33;;;;;;;3.78;1.27;;;15.30;99.90;;;;;;5070624;28;20252;-74
2021/09/20 08:18:01;;;;;;;0.60;0.40;;;15.20;99.90;;;;;;5069358;28;20231;-76
2021/09/20 08:20:28;;;;;;;1.98;0.65;;;15.10;99.90;;;;;;5057559;28;20238;-77
2021/09/20 08:22:55;;;;;;;0.77;0.40;;;15.00;99.90;;;;;;5064351;28;20249;-78
2021/09/20 08:25:25;;;;;;;2.75;1.20;;;15.00;99.90;;;;;;5069898;28;20669;-76
2021/09/20 08:27:53;;;;;;;1.42;0.57;;;15.00;99.90;;;;;;5070248;28;20259;-74
2021/09/20 08:30:22;;;;;;;2.35;0.60;;;15.30;99.90;;;;;;5069564;28;20672;-76
2021/09/20 08:32:49;;;;;;;4.00;0.75;;;15.20;99.90;;;;;;5066491;28;20925;-75
2021/09/20 08:35:18;;;;;;;0.40;0.40;;;15.10;99.90;;;;;;5058265;28;20325;-75
2021/09/20 08:37:45;;;;;;;2.55;0.50;;;15.10;99.90;;;;;;5069472;28;20206;-75
2021/09/20 08:40:13;;;;;;;0.88;0.40;;;15.10;99.90;;;;;;5061831;28;20230;-75
2021/09/20 08:42:41;;;;;;;0.85;0.50;;;15.00;99.90;;;;;;5065038;28;20342;-74
2021/09/20 08:45:11;;;;;;;1.83;0.60;;;14.90;99.90;;;;;;5059995;28;20255;-77
2021/09/20 08:47:41;;;;;;;1.33;0.50;;;14.90;99.90;;;;;;5065842;28;20267;-76
2021/09/20 08:50:10;;;;;;;3.85;0.50;;;15.00;99.90;;;;;;5068406;28;20210;-77
2021/09/20 08:52:39;;;;;;;1.23;0.57;;;14.90;99.90;;;;;;5069126;28;20255;-79
2021/09/20 08:55:09;;;;;;;2.30;0.55;;;15.10;99.90;;;;;;5069764;28;20213;-76
2021/09/20 08:57:36;;;;;;;2.33;0.60;;;15.00;99.90;;;;;;5070230;28;20253;-77
2021/09/20 09:00:05;;;;;;;1.27;0.65;;;15.20;99.90;;;;;;5069630;28;20696;-76
2021/09/20 09:02:33;;;;;;;0.70;0.40;;;15.20;99.90;;;;;;5070616;28;20202;-73
2021/09/20 09:05:14;;;;;;;1.15;0.80;;;15.40;99.90;;;;;;5069020;28;20202;-72
2021/09/20 09:07:44;;;;;;;1.35;0.50;;;15.60;99.90;;;;;;5069975;28;20217;-72
2021/09/20 09:10:12;;;;;;;1.58;0.52;;;15.90;99.90;;;;;;5067060;28;20259;-73
2021/09/20 09:12:39;;;;;;;0.90;0.60;;;16.30;99.90;;;;;;5074073;28;20283;-73
2021/09/20 09:15:09;;;;;;;1.40;0.88;;;16.70;99.90;;;;;;5073374;28;20255;-73
2021/09/20 09:17:37;;;;;;;0.52;0.52;;;17.20;99.90;;;;;;5074032;28;20206;-74
2021/09/20 09:20:09;;;;;;;3.65;1.00;;;17.30;99.90;;;;;;5072923;28;20311;-74
2021/09/20 09:22:47;;;;;;;1.25;0.60;;;17.60;99.90;;;;;;5072808;28;20263;-75
2021/09/20 09:25:18;;;;;;;0.45;0.38;;;19.30;99.90;;;;;;5071141;28;20251;-73
2021/09/20 09:27:46;;;;;;;1.08;0.40;;;20.20;99.90;;;;;;5074371;28;20210;-74
2021/09/20 09:30:20;;;;;;;1.90;0.68;;;19.10;99.90;;;;;;5073451;28;20255;-73
2021/09/20 09:32:49;;;;;;;1.23;0.45;;;18.70;99.90;;;;;;5074139;28;20632;-74
2021/09/20 09:35:18;;;;;;;0.95;0.22;;;18.30;99.90;;;;;;5073500;28;20259;-74
2021/09/20 09:37:48;;;;;;;2.25;0.60;;;17.80;99.90;;;;;;5067548;28;20289;-75
2021/09/20 09:40:22;;;;;;;0.85;0.52;;;17.50;99.90;;;;;;5071490;28;20316;-72
2021/09/20 09:42:51;;;;;;;0.47;0.40;;;17.50;99.90;;;;;;5068142;28;20688;-75
2021/09/20 09:45:26;;;;;;;0.80;0.30;;;17.40;99.90;;;;;;5070374;28;20212;-74
2021/09/20 09:48:16;;;;;;;0.30;0.30;;;17.20;99.90;;;;;;5073245;28;20237;-76
2021/09/20 09:50:47;;;;;;;1.23;0.30;;;17.10;99.90;;;;;;5068794;28;20648;-74
2021/09/20 09:53:27;;;;;;;0.82;0.80;;;17.10;99.90;;;;;;5066561;28;20283;-74
2021/09/20 09:55:56;;;;;;;0.40;0.40;;;17.10;99.90;;;;;;5072878;28;20210;-73
2021/09/20 09:58:25;;;;;;;0.55;0.43;;;17.10;99.90;;;;;;5063149;28;20662;-74
2021/09/20 10:00:53;;;;;;;0.20;0.20;;;17.10;99.90;;;;;;5072984;28;20774;-75
2021/09/20 10:03:20;;;;;;;1.00;0.45;;;17.20;99.90;;;;;;5071714;28;20218;-73
2021/09/20 10:05:58;;;;;;;1.73;0.63;;;17.20;99.90;;;;;;5064776;28;20253;-74
2021/09/20 10:08:27;;;;;;;2.65;0.77;;;17.20;99.90;;;;;;5062977;28;20216;-75
2021/09/20 10:10:54;;;;;;;1.70;0.50;;;17.50;99.90;;;;;;5068425;28;20291;-74
2021/09/20 10:13:22;;;;;;;0.70;0.40;;;18.90;99.90;;;;;;5065525;28;20715;-75
2021/09/20 10:15:49;;;;;;;0.57;0.50;;;20.30;99.90;;;;;;5067245;28;20203;-79
2021/09/20 10:18:17;;;;;;;0.47;0.47;;;20.00;99.90;;;;;;5069540;28;20202;-79
2021/09/20 10:20:44;;;;;;;0.73;0.57;;;20.60;99.90;;;;;;5072024;28;20577;-77
2021/09/20 10:23:12;;;;;;;0.40;0.30;;;20.00;99.90;;;;;;5068868;28;20302;-80
2021/09/20 10:25:40;;;;;;;0.38;0.30;;;18.80;99.90;;;;;;5064859;28;20260;-80
2021/09/20 10:28:07;;;;;;;0.25;0.25;;;18.50;99.90;;;;;;5072523;28;20248;-77
2021/09/20 10:30:36;;;;;;;1.58;0.38;;;18.60;99.90;;;;;;5072712;28;20634;-77
2021/09/20 10:33:07;;;;;;;0.40;0.35;;;18.50;99.90;;;;;;5064965;28;20210;-83
2021/09/20 10:35:35;;;;;;;0.65;0.50;;;18.70;99.90;;;;;;5072860;28;20279;-81
2021/09/20 10:38:05;;;;;;;0.47;0.20;;;18.60;99.90;;;;;;5071965;28;20278;-80
2021/09/20 10:40:33;;;;;;;0.43;0.43;;;18.50;99.90;;;;;;5068795;28;20291;-78
2021/09/20 10:43:07;;;;;;;1.75;0.43;;;18.50;99.90;;;;;;5062555;28;20203;-77
2021/09/20 10:45:38;;;;;;;0.40;0.40;;;18.70;99.90;;;;;;5063501;28;20788;-78
2021/09/20 10:48:34;;;;;;;1.33;0.50;;;18.80;99.90;;;;;;5059018;28;20216;-79
2021/09/20 10:51:04;;;;;;;0.90;0.40;;;18.80;99.90;;;;;;5058771;28;20746;-77
2021/09/20 10:53:35;;;;;;;0.35;0.35;;;19.00;99.90;;;;;;5060757;28;20214;-79
2021/09/20 10:56:24;;;;;;;0.85;0.85;;;19.40;99.90;;;;;;5071311;28;20198;-77
2021/09/20 10:59:14;;;;;;;0.60;0.40;;;19.50;99.90;;;;;;5060218;28;20212;-77
2021/09/20 11:01:42;;;;;;;0.60;0.43;;;19.80;99.90;;;;;;5071914;28;20263;-78
2021/09/20 11:04:15;;;;;;;2.25;0.70;;;19.80;99.90;;;;;;5071678;28;20958;-79
2021/09/20 11:06:44;;;;;;;1.00;0.50;;;19.30;99.90;;;;;;5072281;28;20283;-78
2021/09/20 11:09:50;;;;;;;1.63;0.40;;;19.70;99.90;;;;;;5069638;28;20206;-76
2021/09/20 11:12:20;;;;;;;0.57;0.50;;;20.00;99.90;;;;;;5054964;28;20202;-75
2021/09/20 11:14:52;;;;;;;0.30;0.30;;;20.00;99.90;;;;;;5066805;28;20241;-81
2021/09/20 11:17:54;;;;;;;0.40;0.30;;;19.70;99.90;;;;;;5070650;28;20244;-75
2021/09/20 11:20:29;;;;;;;0.47;0.30;;;19.50;99.90;;;;;;5068952;28;20670;-79
2021/09/20 11:23:31;;;;;;;0.30;0.28;;;19.40;99.90;;;;;;5067352;28;20285;-75
2021/09/20 11:26:16;;;;;;;0.73;0.28;;;19.60;99.90;;;;;;5065168;28;22703;-82
2021/09/20 11:28:49;;;;;;;0.20;0.20;;;19.60;99.90;;;;;;5069329;28;20271;-76
2021/09/20 11:31:18;;;;;;;0.80;0.40;;;19.70;99.90;;;;;;5062684;28;20264;-80
2021/09/20 11:33:46;;;;;;;0.38;0.30;;;19.60;99.90;;;;;;5069647;28;20211;-76
2021/09/20 11:36:22;;;;;;;1.00;0.70;;;19.30;99.90;;;;;;5070274;28;20256;-80
2021/09/20 11:38:50;;;;;;;3.15;0.50;;;19.10;99.90;;;;;;5071476;28;20252;-76
2021/09/20 11:41:19;;;;;;;3.60;0.40;;;19.60;99.90;;;;;;5067290;28;20367;-86
2021/09/20 11:43:46;;;;;;;0.40;0.40;;;20.00;99.90;;;;;;5065251;28;20256;-84
2021/09/20 11:46:20;;;;;;;0.38;0.38;;;20.20;99.90;;;;;;5068192;28;20256;-86
2021/09/20 11:48:47;;;;;;;1.55;0.50;;;20.40;99.90;;;;;;5065810;28;20730;-86
2021/09/20 11:51:14;;;;;;;1.05;0.50;;;20.80;99.90;;;;;;5070729;28;20207;-83
2021/09/20 11:53:41;;;;;;;0.35;0.35;;;20.90;99.90;;;;;;5070435;28;20260;-81
2021/09/20 11:56:08;;;;;;;10.23;1.20;;;20.50;99.90;;;;;;5069629;28;20240;-82
2021/09/20 11:58:35;;;;;;;0.35;0.35;;;20.00;99.90;;;;;;5070358;28;20689;-84
2021/09/20 12:01:02;;;;;;;1.52;0.82;;;19.80;99.90;;;;;;5068873;28;20233;-85
2021/09/20 12:03:30;;;;;;;0.65;0.40;;;20.30;99.90;;;;;;5071452;28;20743;-82
2021/09/20 12:06:01;;;;;;;0.40;0.40;;;20.60;99.90;;;;;;5061745;28;20203;-82
2021/09/20 12:08:28;;;;;;;0.77;0.57;;;20.60;99.90;;;;;;5058958;28;20202;-83
2021/09/20 12:10:57;;;;;;;1.77;0.40;;;20.50;99.90;;;;;;5057284;28;20202;-83
2021/09/20 12:13:27;;;;;;;0.77;0.50;;;20.30;99.90;;;;;;5056631;28;20202;-78
2021/09/20 12:15:58;;;;;;;0.20;0.20;;;20.50;99.90;;;;;;5070255;28;20220;-84
2021/09/20 12:18:27;;;;;;;1.08;0.65;;;20.80;99.90;;;;;;5070179;28;20210;-82
2021/09/20 12:20:58;;;;;;;0.70;0.40;;;21.00;99.90;;;;;;5063105;28;20234;-83
2021/09/20 12:23:28;;;;;;;0.93;0.32;;;20.90;99.90;;;;;;5061193;28;20555;-85
2021/09/20 12:25:57;;;;;;;0.28;0.25;;;21.10;99.90;;;;;;5070540;28;20746;-81
2021/09/20 12:28:28;;;;;;;0.40;0.40;;;20.90;99.90;;;;;;5066475;28;20352;-82
2021/09/20 12:30:58;;;;;;;0.85;0.28;;;20.50;99.90;;;;;;5068661;28;20308;-87
2021/09/20 12:33:26;;;;;;;0.50;0.50;;;20.20;99.90;;;;;;5068366;28;20198;-77
2021/09/20 12:35:55;;;;;;;0.40;0.40;;;20.10;99.90;;;;;;5070602;28;20291;-81
2021/09/20 12:38:28;;;;;;;2.17;0.43;;;20.00;99.90;;;;;;5063575;28;20232;-76
2021/09/20 12:40:58;;;;;;;0.55;0.40;;;19.90;99.90;;;;;;5068973;28;20226;-82
2021/09/20 12:43:31;;;;;;;3.28;0.60;;;19.90;99.90;;;;;;5070532;28;20323;-76
2021/09/20 12:46:09;;;;;;;0.60;0.40;;;19.80;99.90;;;;;;5065850;28;20276;-79
2021/09/20 12:48:38;;;;;;;2.03;0.88;;;19.40;99.90;;;;;;5068498;28;20220;-84
2021/09/20 12:51:10;;;;;;;2.55;1.58;;;18.80;99.90;;;;;;5066111;28;20198;-74
2021/09/20 12:53:39;;;;;;;1.38;0.57;;;16.30;99.90;;;;;;5069200;28;20600;-76
2021/09/20 12:56:08;;;;;;;1.55;1.00;;;14.80;99.90;;;;;;5070041;28;20205;-74